createdAt,value
2022-12-31T00:02:23.297Z,5.87
2022-12-31T00:06:34.700Z,6.40
2022-12-31T00:10:41.743Z,7.07
2022-12-31T00:14:47.430Z,6.40
2022-12-31T00:19:00.235Z,5.87
2022-12-31T00:27:11.099Z,6.40
2022-12-31T00:31:38.191Z,6.80
2022-12-31T00:35:43.672Z,5.03
2022-12-31T00:39:49.151Z,7.50
2022-12-31T00:43:55.241Z,6.33
2022-12-31T00:48:00.684Z,5.43
2022-12-31T00:52:06.198Z,6.57
2022-12-31T00:56:16.724Z,5.57
2022-12-31T01:00:22.242Z,5.40
2022-12-31T01:04:27.717Z,7.47
2022-12-31T01:08:33.907Z,8.30
2022-12-31T01:12:39.371Z,5.07
2022-12-31T01:16:51.661Z,5.43
2022-12-31T01:21:01.782Z,6.77
2022-12-31T01:25:07.832Z,5.43
2022-12-31T01:29:14.067Z,6.50
2022-12-31T01:33:19.901Z,5.80
2022-12-31T01:37:25.377Z,9.37
2022-12-31T01:41:35.799Z,6.13
2022-12-31T01:45:43.681Z,6.87
2022-12-31T01:49:54.855Z,7.20
2022-12-31T01:54:04.156Z,7.30
2022-12-31T01:58:19.973Z,10.00
2022-12-31T02:02:25.568Z,5.87
2022-12-31T02:06:46.171Z,7.67
2022-12-31T02:10:51.631Z,6.80
2022-12-31T02:14:57.169Z,4.77
2022-12-31T02:24:18.036Z,5.63
2022-12-31T02:28:55.564Z,7.33
2022-12-31T02:33:09.952Z,6.50
2022-12-31T02:37:17.955Z,4.97
2022-12-31T02:41:41.748Z,4.70
2022-12-31T02:46:03.213Z,5.87
2022-12-31T02:50:25.729Z,5.13
2022-12-31T02:54:58.338Z,6.80
2022-12-31T02:59:49.420Z,4.97
2022-12-31T03:04:15.032Z,4.80
2022-12-31T03:08:25.859Z,5.70
2022-12-31T03:12:48.899Z,8.03
2022-12-31T03:16:54.483Z,8.80
2022-12-31T03:21:18.580Z,4.70
2022-12-31T03:25:35.983Z,7.87
2022-12-31T03:50:12.326Z,4.50
2022-12-31T03:54:17.917Z,5.20
2022-12-31T03:58:23.550Z,8.13
2022-12-31T04:02:29.698Z,7.37
2022-12-31T04:06:35.324Z,5.80
2022-12-31T04:10:40.844Z,6.90
2022-12-31T04:14:46.303Z,5.20
2022-12-31T04:18:51.799Z,5.47
2022-12-31T04:22:57.265Z,9.50
2022-12-31T04:27:07.498Z,6.10
2022-12-31T04:31:13.668Z,5.70
2022-12-31T04:35:19.268Z,8.90
2022-12-31T04:39:25.475Z,5.40
2022-12-31T04:43:31.051Z,5.00
2022-12-31T04:47:36.559Z,8.17
2022-12-31T04:51:42.133Z,6.50
2022-12-31T04:55:47.581Z,8.33
2022-12-31T04:59:53.018Z,5.67
2022-12-31T05:03:58.803Z,8.30
2022-12-31T05:08:04.473Z,6.07
2022-12-31T05:12:09.938Z,6.80
2022-12-31T05:16:15.500Z,6.47
2022-12-31T05:20:21.059Z,6.73
2022-12-31T05:24:26.498Z,6.77
2022-12-31T05:28:32.702Z,6.83
2022-12-31T05:32:38.517Z,5.93
2022-12-31T05:36:43.965Z,4.47
2022-12-31T05:40:49.430Z,3.90
2022-12-31T05:44:55.170Z,3.20
2022-12-31T05:49:00.683Z,4.27
2022-12-31T05:53:06.236Z,4.07
2022-12-31T05:57:12.038Z,4.47
2022-12-31T06:01:17.526Z,5.20
2022-12-31T06:05:26.331Z,5.37
2022-12-31T06:09:32.225Z,3.60
2022-12-31T09:33:03.404Z,0.90
2022-12-31T09:37:18.728Z,4.70
2022-12-31T09:41:52.323Z,1.23
2022-12-31T09:46:39.882Z,1.10
2022-12-31T09:51:02.700Z,0.90
2022-12-31T09:55:37.949Z,1.03
2022-12-31T10:00:15.911Z,1.40
2022-12-31T10:04:42.159Z,1.80
2022-12-31T10:13:31.227Z,1.20
2022-12-31T10:17:45.745Z,1.67
2022-12-31T10:23:04.351Z,0.93
2022-12-31T10:27:16.506Z,8.27
2022-12-31T10:32:01.658Z,3.53
2022-12-31T10:36:31.035Z,1.23
2022-12-31T10:41:16.892Z,1.90
2022-12-31T10:45:56.556Z,1.23
2022-12-31T10:50:55.642Z,1.40
2022-12-31T10:55:28.286Z,2.53
2022-12-31T11:00:09.303Z,1.40
2022-12-31T11:05:03.113Z,1.60
2022-12-31T11:09:51.807Z,1.53
2022-12-31T11:14:54.008Z,1.63
2022-12-31T11:19:20.627Z,2.00
2022-12-31T11:24:15.014Z,7.47
2022-12-31T11:29:01.500Z,2.80
2022-12-31T11:33:51.223Z,1.40
2022-12-31T11:38:21.444Z,1.70
2022-12-31T11:56:04.370Z,1.53
2022-12-31T12:00:18.964Z,2.07
2022-12-31T12:04:24.625Z,1.40
2022-12-31T12:08:33.081Z,1.83
2022-12-31T12:12:42.987Z,1.67
2022-12-31T12:17:02.463Z,2.70
2022-12-31T12:21:15.958Z,1.70
2022-12-31T12:25:25.611Z,1.57
2022-12-31T12:29:35.579Z,1.37
2022-12-31T12:33:44.381Z,3.37
2022-12-31T12:38:06.695Z,1.53
2022-12-31T12:42:14.603Z,1.47
2022-12-31T12:50:53.929Z,1.20
2022-12-31T12:55:59.317Z,7.33
2022-12-31T13:00:45.468Z,1.57
2022-12-31T13:05:31.433Z,1.77
2022-12-31T13:09:58.536Z,1.20
2022-12-31T13:14:38.058Z,2.07
2022-12-31T13:19:20.050Z,1.20
2022-12-31T13:27:50.352Z,0.90
2022-12-31T13:31:56.928Z,5.63
2022-12-31T13:36:05.888Z,1.20
2022-12-31T13:45:04.820Z,1.13
2022-12-31T13:49:39.630Z,1.40
2022-12-31T13:53:59.674Z,3.50
2022-12-31T13:58:18.889Z,1.97
2022-12-31T14:02:48.801Z,1.40
2022-12-31T14:07:39.081Z,1.77
2022-12-31T14:12:07.268Z,1.83
2022-12-31T14:16:46.937Z,2.30
2022-12-31T14:22:04.605Z,1.10
2022-12-31T14:26:36.218Z,1.10
2022-12-31T14:30:44.836Z,1.00
2022-12-31T14:35:27.279Z,2.80
2022-12-31T14:40:06.573Z,1.27
2022-12-31T14:45:02.849Z,1.30
2022-12-31T14:49:48.248Z,1.40
2022-12-31T14:53:56.878Z,1.23
2022-12-31T14:58:29.087Z,0.77
2022-12-31T15:02:35.484Z,1.17
2022-12-31T15:07:10.480Z,4.00
2022-12-31T15:11:50.546Z,0.93
2022-12-31T15:15:55.973Z,0.80
2022-12-31T15:20:17.655Z,1.10
2022-12-31T15:28:39.784Z,1.83
2022-12-31T15:32:47.580Z,1.40
2022-12-31T15:41:14.088Z,1.60
2022-12-31T15:45:31.857Z,1.90
2022-12-31T15:49:43.198Z,2.60
2022-12-31T15:53:54.302Z,5.60
2022-12-31T15:58:12.126Z,3.23
2022-12-31T16:02:28.284Z,4.23
2022-12-31T16:06:38.480Z,3.93
2022-12-31T16:10:44.448Z,4.10
2022-12-31T16:14:56.833Z,5.13
2022-12-31T16:19:02.313Z,4.27
2022-12-31T16:23:25.906Z,4.67
2022-12-31T16:27:32.233Z,9.27
2022-12-31T16:31:37.911Z,5.70
2022-12-31T16:35:44.571Z,4.67
2022-12-31T16:40:17.277Z,5.83
2022-12-31T16:44:30.672Z,4.70
2022-12-31T16:48:37.263Z,6.30
2022-12-31T16:52:45.705Z,6.97
2022-12-31T16:56:52.329Z,6.37
2022-12-31T17:01:21.147Z,6.63
2022-12-31T17:05:28.133Z,7.17
2022-12-31T17:09:37.812Z,8.93
2022-12-31T17:13:43.371Z,9.20
2022-12-31T17:17:58.332Z,10.23
2022-12-31T17:22:09.689Z,7.57
2022-12-31T17:26:26.229Z,10.03
2022-12-31T17:30:32.694Z,9.50
2022-12-31T17:34:56.456Z,8.00
2022-12-31T17:39:18.066Z,11.10
2022-12-31T17:43:24.629Z,7.73
2022-12-31T17:47:39.815Z,9.70
2022-12-31T17:51:47.771Z,6.10
2022-12-31T17:55:56.903Z,8.73
2022-12-31T18:00:17.248Z,7.83
2022-12-31T18:04:22.724Z,11.30
2022-12-31T18:08:29.048Z,3.30
2022-12-31T18:12:35.854Z,3.30
2022-12-31T18:16:41.837Z,4.83
2022-12-31T18:20:49.139Z,4.17
2022-12-31T18:24:55.376Z,6.43
2022-12-31T18:29:14.698Z,5.70
2022-12-31T18:33:23.791Z,8.93
2022-12-31T18:37:29.944Z,9.03
2022-12-31T18:41:49.645Z,8.27
2022-12-31T18:45:55.506Z,7.30
2022-12-31T18:50:00.964Z,6.70
2022-12-31T18:54:10.631Z,17.50
2022-12-31T18:58:16.470Z,7.97
2022-12-31T19:02:21.953Z,9.77
2022-12-31T19:06:28.728Z,11.40
2022-12-31T19:10:34.964Z,16.83
2022-12-31T19:14:40.584Z,14.43
2022-12-31T19:18:47.509Z,13.40
2022-12-31T19:22:53.078Z,10.10
2022-12-31T19:27:00.718Z,4.73
2022-12-31T19:31:06.218Z,7.23
2022-12-31T19:35:13.752Z,8.80
2022-12-31T19:39:21.478Z,7.77
2022-12-31T19:43:27.238Z,10.03
2022-12-31T19:47:32.756Z,10.80
2022-12-31T19:51:38.864Z,32.00
2022-12-31T19:55:44.383Z,13.80
2022-12-31T19:59:49.865Z,18.00
2022-12-31T20:03:56.397Z,16.63
2022-12-31T20:08:01.885Z,19.97
2022-12-31T20:12:07.371Z,15.70
2022-12-31T20:16:16.908Z,21.60
2022-12-31T20:20:29.112Z,21.67
2022-12-31T20:24:34.581Z,28.10
2022-12-31T20:28:40.054Z,24.20
2022-12-31T20:32:45.526Z,18.77
2022-12-31T20:36:50.975Z,21.10
2022-12-31T20:41:03.169Z,15.87
2022-12-31T20:45:10.959Z,18.60
2022-12-31T20:49:16.528Z,20.03
2022-12-31T20:53:22.108Z,18.80
2022-12-31T20:57:31.685Z,16.10
2022-12-31T21:02:11.790Z,14.97
2022-12-31T21:06:05.532Z,12.00
2022-12-31T21:10:11.042Z,19.80
2022-12-31T21:14:16.573Z,17.43
2022-12-31T21:18:23.034Z,20.07
2022-12-31T21:22:30.068Z,21.37
2022-12-31T21:26:35.752Z,16.90
2022-12-31T21:30:42.079Z,14.90
2022-12-31T21:35:06.393Z,13.33
2022-12-31T21:39:13.090Z,14.90
2022-12-31T21:43:18.792Z,9.10
2022-12-31T21:47:47.444Z,19.40
2022-12-31T21:52:11.671Z,9.90
2022-12-31T21:56:19.241Z,12.60
2022-12-31T22:00:43.724Z,6.47
2022-12-31T22:05:10.463Z,8.53
2022-12-31T22:09:15.073Z,8.20
2022-12-31T22:13:21.239Z,12.50
2022-12-31T22:17:27.067Z,13.57
2022-12-31T22:21:32.577Z,9.85
2022-12-31T22:25:38.988Z,8.80
2022-12-31T22:29:44.424Z,10.43
2022-12-31T22:33:50.438Z,9.10
2022-12-31T22:37:59.041Z,5.83
2022-12-31T22:42:07.137Z,6.50
2022-12-31T22:46:20.914Z,8.00
2022-12-31T22:50:26.376Z,7.95
2022-12-31T22:54:31.898Z,6.73
2022-12-31T22:58:37.831Z,7.10
2022-12-31T23:02:43.409Z,8.70
2022-12-31T23:06:48.979Z,8.33
2022-12-31T23:11:00.477Z,20.77
2022-12-31T23:15:25.488Z,26.50
2022-12-31T23:19:49.356Z,35.30
2022-12-31T23:23:54.852Z,38.83
2022-12-31T23:28:00.539Z,36.40
2022-12-31T23:32:07.251Z,28.17
2022-12-31T23:36:13.824Z,22.70
2022-12-31T23:40:21.754Z,21.30
2022-12-31T23:44:28.521Z,20.10
2022-12-31T23:48:33.974Z,28.87
2022-12-31T23:52:39.474Z,18.90
2022-12-31T23:56:45.001Z,16.30
